Time;durP1;ratioP1;P1;durP2;ratioP2;P2;SDS_P1;SDS_P2;PMS_P1;PMS_P2;Temp;Humidity;BMP_temperature;BMP_pressure;BME280_temperature;BME280_humidity;BME280_pressure;Samples;Min_cycle;Max_cycle;Signal;HPM_P1;HPM_P2
2022/11/12 00:02:05;;;;;;;;;;;;;9.20;98958.60;;;;108815;1271;41964;-61
2022/11/12 00:04:53;;;;;;;;;;;;;9.20;98953.00;;;;108861;1270;41626;-61
2022/11/12 00:07:42;;;;;;;;;;;;;9.20;98960.40;;;;109025;1269;41645;-61
2022/11/12 00:10:31;;;;;;;;;;;;;9.20;98957.40;;;;108995;1269;41171;-61
2022/11/12 00:13:18;;;;;;;;;;;;;9.20;98955.00;;;;108965;1269;41162;-62
2022/11/12 00:16:06;;;;;;;;;;;;;9.20;98948.80;;;;108919;1269;41604;-62
2022/11/12 00:18:54;;;;;;;;;;;;;9.20;98942.20;;;;108965;1263;41143;-61
2022/11/12 00:21:42;;;;;;;;;;;;;9.20;98936.00;;;;108975;1269;41672;-61
2022/11/12 00:24:30;;;;;;;;;;;;;9.20;98931.20;;;;108891;1260;41174;-61
2022/11/12 00:27:18;;;;;;;;;;;;;9.20;98934.40;;;;108950;1269;42254;-62
2022/11/12 00:30:07;;;;;;;;;;;;;9.20;98934.00;;;;108932;1269;41233;-61
2022/11/12 00:32:55;;;;;;;;;;;;;9.20;98939.40;;;;108932;1269;41290;-62
2022/11/12 00:35:44;;;;;;;;;;;;;9.18;98942.80;;;;108945;1269;42423;-61
2022/11/12 00:38:32;;;;;;;;;;;;;9.10;98951.20;;;;108917;1269;41159;-61
2022/11/12 00:41:21;;;;;;;;;;;;;9.10;98952.40;;;;108979;1269;41649;-62
2022/11/12 00:44:10;;;;;;;;;;;;;9.00;98943.20;;;;108973;1269;41809;-62
2022/11/12 00:46:59;;;;;;;;;;;;;9.00;98943.60;;;;109004;1268;41395;-61
2022/11/12 00:49:47;;;;;;;;;;;;;9.00;98945.60;;;;108919;1269;41180;-62
2022/11/12 00:52:36;;;;;;;;;;;;;9.00;98956.00;;;;109047;1269;41160;-61
2022/11/12 00:55:25;;;;;;;;;;;;;9.00;98958.80;;;;108948;1269;41619;-62
2022/11/12 00:58:14;;;;;;;;;;;;;9.00;98955.40;;;;108973;1269;41168;-61
2022/11/12 01:01:10;;;;;;;;;;;;;9.00;98953.40;;;;108944;1267;41185;-63
2022/11/12 01:03:59;;;;;;;;;;;;;9.04;98956.80;;;;108809;1269;41212;-63
2022/11/12 01:06:47;;;;;;;;;;;;;9.08;98951.60;;;;108818;1269;41145;-63
2022/11/12 01:09:36;;;;;;;;;;;;;9.10;98954.00;;;;108847;1269;41247;-63
2022/11/12 01:12:24;;;;;;;;;;;;;9.10;98948.40;;;;108914;1269;41212;-63
2022/11/12 01:15:13;;;;;;;;;;;;;9.10;98939.80;;;;108977;1269;41159;-63
2022/11/12 01:18:01;;;;;;;;;;;;;9.10;98933.20;;;;108975;1265;41155;-63
2022/11/12 01:20:50;;;;;;;;;;;;;9.10;98932.00;;;;108939;1269;41236;-63
2022/11/12 01:23:39;;;;;;;;;;;;;9.10;98931.80;;;;108860;1267;41152;-63
2022/11/12 01:26:28;;;;;;;;;;;;;9.10;98926.00;;;;108937;1269;41174;-63
2022/11/12 01:29:16;;;;;;;;;;;;;9.10;98928.60;;;;108852;1269;41155;-63
2022/11/12 01:32:05;;;;;;;;;;;;;9.10;98929.40;;;;108748;1269;42135;-63
2022/11/12 01:34:54;;;;;;;;;;;;;9.10;98924.80;;;;108782;1268;41350;-62
2022/11/12 01:37:42;;;;;;;;;;;;;9.10;98925.80;;;;108774;1267;41403;-62
2022/11/12 01:40:31;;;;;;;;;;;;;9.10;98931.00;;;;108791;1269;41179;-63
2022/11/12 01:43:19;;;;;;;;;;;;;9.10;98927.80;;;;108878;1265;41212;-63
2022/11/12 01:46:17;;;;;;;;;;;;;9.10;98924.60;;;;108953;1269;41160;-64
2022/11/12 01:49:05;;;;;;;;;;;;;9.10;98926.20;;;;108998;1269;41165;-63
2022/11/12 01:51:55;;;;;;;;;;;;;9.10;98915.80;;;;108910;1267;41162;-63
2022/11/12 01:54:45;;;;;;;;;;;;;9.06;98923.80;;;;108980;1266;41709;-64
2022/11/12 01:57:36;;;;;;;;;;;;;9.02;98918.40;;;;108893;1269;41618;-63
2022/11/12 02:00:24;;;;;;;;;;;;;9.00;98916.00;;;;108772;1271;41253;-63
2022/11/12 02:03:15;;;;;;;;;;;;;9.00;98916.80;;;;108856;1269;41174;-63
2022/11/12 02:06:07;;;;;;;;;;;;;9.00;98910.60;;;;108942;1269;41603;-63
2022/11/12 02:08:55;;;;;;;;;;;;;8.92;98913.20;;;;108880;1269;41153;-63
2022/11/12 02:11:44;;;;;;;;;;;;;8.90;98915.20;;;;108800;1264;41198;-63
2022/11/12 02:14:33;;;;;;;;;;;;;8.90;98908.40;;;;108910;1269;41158;-63
2022/11/12 02:17:22;;;;;;;;;;;;;8.80;98911.20;;;;108883;1269;41210;-63
2022/11/12 02:20:12;;;;;;;;;;;;;8.80;98912.20;;;;108853;1269;41696;-62
2022/11/12 02:23:01;;;;;;;;;;;;;8.70;98910.60;;;;108676;1269;41150;-62
2022/11/12 02:25:49;;;;;;;;;;;;;8.60;98918.60;;;;108756;1270;41147;-62
2022/11/12 02:28:38;;;;;;;;;;;;;8.50;98922.00;;;;108771;1269;41158;-62
2022/11/12 02:31:27;;;;;;;;;;;;;8.50;98920.80;;;;108784;1269;41147;-62
2022/11/12 02:34:16;;;;;;;;;;;;;8.42;98918.40;;;;108760;1271;41923;-62
2022/11/12 02:37:06;;;;;;;;;;;;;8.40;98924.40;;;;108925;1269;41154;-63
2022/11/12 02:39:54;;;;;;;;;;;;;8.40;98933.40;;;;108942;1269;41608;-62
2022/11/12 02:42:43;;;;;;;;;;;;;8.40;98933.00;;;;108933;1269;41579;-63
2022/11/12 02:45:33;;;;;;;;;;;;;8.40;98930.80;;;;108883;1269;41156;-62
2022/11/12 02:48:21;;;;;;;;;;;;;8.48;98932.00;;;;108969;1269;41156;-63
2022/11/12 02:51:10;;;;;;;;;;;;;8.50;98927.80;;;;108847;1269;41210;-63
2022/11/12 02:53:59;;;;;;;;;;;;;8.52;98929.60;;;;108726;1269;41168;-62
2022/11/12 02:56:48;;;;;;;;;;;;;8.60;98943.80;;;;108892;1269;41131;-63
2022/11/12 02:59:36;;;;;;;;;;;;;8.60;98942.60;;;;109001;1266;41429;-63
2022/11/12 03:02:26;;;;;;;;;;;;;8.60;98944.60;;;;108946;1269;41548;-63
2022/11/12 03:05:15;;;;;;;;;;;;;8.60;98947.80;;;;108903;1269;41163;-63
2022/11/12 03:08:05;;;;;;;;;;;;;8.60;98947.00;;;;108942;1269;41135;-63
2022/11/12 03:10:53;;;;;;;;;;;;;8.60;98941.00;;;;109004;1269;41595;-62
2022/11/12 03:13:43;;;;;;;;;;;;;8.60;98943.40;;;;108996;1269;41745;-62
2022/11/12 03:16:32;;;;;;;;;;;;;8.60;98945.40;;;;109002;1269;41654;-62
2022/11/12 03:19:20;;;;;;;;;;;;;8.68;98951.00;;;;108898;1269;41147;-62
2022/11/12 03:22:09;;;;;;;;;;;;;8.70;98953.80;;;;108936;1269;41155;-62
2022/11/12 03:24:58;;;;;;;;;;;;;8.70;98960.20;;;;108934;1270;41213;-62
2022/11/12 03:27:46;;;;;;;;;;;;;8.70;98949.40;;;;108942;1269;41157;-63
2022/11/12 03:30:36;;;;;;;;;;;;;8.70;98954.60;;;;108922;1269;41638;-63
2022/11/12 03:33:24;;;;;;;;;;;;;8.70;98947.20;;;;108987;1269;41137;-63
2022/11/12 03:36:13;;;;;;;;;;;;;8.70;98944.80;;;;109017;1269;41157;-63
2022/11/12 03:39:01;;;;;;;;;;;;;8.76;98942.40;;;;108897;1268;41699;-62
2022/11/12 03:41:49;;;;;;;;;;;;;8.80;98947.00;;;;108914;1269;41167;-62
2022/11/12 03:44:38;;;;;;;;;;;;;8.80;98947.60;;;;108881;1269;41145;-62
2022/11/12 03:47:27;;;;;;;;;;;;;8.82;98950.80;;;;108913;1269;41142;-62
2022/11/12 03:50:17;;;;;;;;;;;;;8.90;98954.60;;;;108870;1269;41618;-62
2022/11/12 03:53:07;;;;;;;;;;;;;8.90;98957.20;;;;108920;1269;41314;-63
2022/11/12 03:55:55;;;;;;;;;;;;;8.90;98953.80;;;;108979;1269;41608;-63
2022/11/12 03:58:44;;;;;;;;;;;;;8.90;98954.80;;;;108971;1269;41175;-63
2022/11/12 04:01:32;;;;;;;;;;;;;8.90;98957.80;;;;108982;1269;41626;-63
2022/11/12 04:04:20;;;;;;;;;;;;;8.90;98959.20;;;;109014;1269;41629;-62
2022/11/12 04:10:15;;;;;;;;;;;;;8.80;98965.00;;;;108921;1266;41393;-62
2022/11/12 04:22:27;;;;;;;;;;;;;8.70;98971.40;;;;108879;1269;41724;-64
2022/11/12 04:28:23;;;;;;;;;;;;;8.80;98968.60;;;;108744;1269;41154;-63
2022/11/12 04:31:11;;;;;;;;;;;;;8.80;98966.20;;;;108807;1269;41169;-64
2022/11/12 04:34:27;;;;;;;;;;;;;8.80;98961.20;;;;108952;1269;42373;-63
2022/11/12 04:37:06;;;;;;;;;;;;;8.80;98965.80;;;;108923;1269;41694;-64
2022/11/12 04:39:54;;;;;;;;;;;;;8.80;98964.40;;;;108883;1268;41169;-63
2022/11/12 04:45:49;;;;;;;;;;;;;8.70;98959.00;;;;108947;1269;41461;-63
2022/11/12 04:48:37;;;;;;;;;;;;;8.70;98957.40;;;;108987;1269;41160;-63
2022/11/12 04:54:51;;;;;;;;;;;;;8.60;98953.40;;;;108636;1268;42402;-62
2022/11/12 04:57:39;;;;;;;;;;;;;8.60;98950.60;;;;108605;1273;41728;-63
2022/11/12 05:00:27;;;;;;;;;;;;;8.60;98947.20;;;;108918;1269;41215;-63
2022/11/12 05:03:15;;;;;;;;;;;;;8.70;98950.00;;;;108808;1269;41234;-63
2022/11/12 05:06:49;;;;;;;;;;;;;8.70;98952.00;;;;108861;1269;41156;-63
2022/11/12 05:09:12;;;;;;;;;;;;;8.70;98956.60;;;;108704;1266;41231;-63
2022/11/12 05:12:00;;;;;;;;;;;;;8.70;98960.40;;;;108761;1271;41188;-63
2022/11/12 05:14:48;;;;;;;;;;;;;8.76;98962.40;;;;108749;1271;41236;-63
2022/11/12 05:17:35;;;;;;;;;;;;;8.80;98961.80;;;;108834;1269;41156;-63
2022/11/12 05:20:23;;;;;;;;;;;;;8.80;98963.80;;;;108729;1271;41510;-63
2022/11/12 05:23:11;;;;;;;;;;;;;8.80;98967.80;;;;108958;1269;42125;-64
2022/11/12 05:25:58;;;;;;;;;;;;;8.80;98968.00;;;;108869;1263;41726;-64
2022/11/12 05:28:46;;;;;;;;;;;;;8.80;98971.40;;;;108948;1269;41150;-63
2022/11/12 05:31:34;;;;;;;;;;;;;8.80;98969.40;;;;108901;1269;41610;-64
2022/11/12 05:34:21;;;;;;;;;;;;;8.80;98974.60;;;;108916;1266;41154;-63
2022/11/12 05:37:10;;;;;;;;;;;;;8.80;98973.20;;;;108916;1269;41149;-63
2022/11/12 05:39:58;;;;;;;;;;;;;8.80;98969.80;;;;108812;1269;41158;-63
2022/11/12 05:42:45;;;;;;;;;;;;;8.86;98971.00;;;;108983;1269;41507;-63
2022/11/12 05:45:33;;;;;;;;;;;;;8.86;98977.40;;;;108910;1269;41599;-63
2022/11/12 05:48:20;;;;;;;;;;;;;8.90;98975.60;;;;108814;1269;41302;-63
2022/11/12 05:51:12;;;;;;;;;;;;;8.90;98987.60;;;;108662;1269;41156;-62
2022/11/12 05:54:00;;;;;;;;;;;;;8.90;98988.80;;;;108711;1260;41133;-62
2022/11/12 05:56:48;;;;;;;;;;;;;8.96;98990.60;;;;108906;1269;41630;-62
2022/11/12 05:59:35;;;;;;;;;;;;;9.00;98990.80;;;;108941;1269;41217;-62
2022/11/12 06:02:23;;;;;;;;;;;;;9.00;98993.40;;;;109001;1269;41497;-62
2022/11/12 06:05:10;;;;;;;;;;;;;9.00;98992.60;;;;108729;1269;41149;-63
2022/11/12 06:07:58;;;;;;;;;;;;;9.00;98991.60;;;;108976;1269;41613;-62
2022/11/12 06:10:49;;;;;;;;;;;;;9.00;98994.40;;;;108966;1269;41613;-63
2022/11/12 06:13:36;;;;;;;;;;;;;9.08;99001.40;;;;108837;1266;41270;-63
2022/11/12 06:16:23;;;;;;;;;;;;;9.10;98999.40;;;;108949;1269;41156;-62
2022/11/12 06:19:10;;;;;;;;;;;;;9.10;98999.20;;;;108848;1270;41249;-62
2022/11/12 06:21:58;;;;;;;;;;;;;9.10;99002.60;;;;108948;1269;41187;-63
2022/11/12 06:24:46;;;;;;;;;;;;;9.10;99002.60;;;;108961;1265;41240;-63
2022/11/12 06:27:33;;;;;;;;;;;;;9.10;99001.00;;;;108968;1266;42245;-62
2022/11/12 06:30:20;;;;;;;;;;;;;9.10;99006.40;;;;108964;1269;41875;-63
2022/11/12 06:33:11;;;;;;;;;;;;;9.10;99009.00;;;;108960;1269;42108;-62
2022/11/12 06:36:01;;;;;;;;;;;;;9.12;99014.40;;;;108917;1267;41285;-63
2022/11/12 06:38:49;;;;;;;;;;;;;9.10;99006.20;;;;108884;1262;41146;-63
2022/11/12 06:41:36;;;;;;;;;;;;;9.18;99013.80;;;;109011;1269;41145;-63
2022/11/12 06:44:23;;;;;;;;;;;;;9.20;99010.60;;;;108927;1266;41356;-63
2022/11/12 06:47:11;;;;;;;;;;;;;9.20;99012.80;;;;108852;1269;41161;-63
2022/11/12 06:49:58;;;;;;;;;;;;;9.30;99017.20;;;;108849;1267;42248;-63
2022/11/12 06:52:45;;;;;;;;;;;;;9.38;99021.60;;;;108752;1259;41235;-63
2022/11/12 06:55:33;;;;;;;;;;;;;9.40;99021.80;;;;108898;1267;42572;-65
2022/11/12 06:58:20;;;;;;;;;;;;;9.40;99027.00;;;;108750;1269;41277;-63
2022/11/12 07:01:14;;;;;;;;;;;;;9.40;99023.60;;;;108731;1264;42448;-63
2022/11/12 07:04:01;;;;;;;;;;;;;9.40;99021.40;;;;108712;1271;41148;-63
2022/11/12 07:06:48;;;;;;;;;;;;;9.40;99023.40;;;;108810;1271;42205;-63
2022/11/12 07:09:35;;;;;;;;;;;;;9.40;99024.00;;;;108719;1269;41248;-63
2022/11/12 07:12:22;;;;;;;;;;;;;9.46;99012.80;;;;108967;1257;41224;-63
2022/11/12 07:15:09;;;;;;;;;;;;;9.50;99012.80;;;;108875;1266;42485;-63
2022/11/12 07:17:56;;;;;;;;;;;;;9.50;99015.00;;;;108809;1266;41627;-63
2022/11/12 07:20:43;;;;;;;;;;;;;9.50;99013.00;;;;108816;1256;42591;-63
2022/11/12 07:23:31;;;;;;;;;;;;;9.50;99019.00;;;;108757;1271;41158;-61
2022/11/12 07:26:20;;;;;;;;;;;;;9.50;99018.40;;;;108843;1268;41229;-62
2022/11/12 07:29:07;;;;;;;;;;;;;9.50;99020.80;;;;108451;1267;292848;-62
2022/11/12 07:31:54;;;;;;;;;;;;;9.50;99028.20;;;;108725;1262;41167;-61
2022/11/12 07:34:42;;;;;;;;;;;;;9.56;99024.60;;;;108769;1269;41265;-61
2022/11/12 07:37:29;;;;;;;;;;;;;9.60;99030.80;;;;108907;1270;41156;-62
2022/11/12 07:40:16;;;;;;;;;;;;;9.54;99036.80;;;;108914;1271;41197;-63
2022/11/12 07:43:04;;;;;;;;;;;;;9.60;99037.40;;;;108878;1268;42472;-63
2022/11/12 07:45:50;;;;;;;;;;;;;9.60;99043.20;;;;108881;1271;41949;-62
2022/11/12 07:48:37;;;;;;;;;;;;;9.60;99046.40;;;;108868;1270;42097;-62
2022/11/12 07:51:25;;;;;;;;;;;;;9.60;99045.60;;;;108648;1268;42472;-61
2022/11/12 07:54:13;;;;;;;;;;;;;9.70;99048.20;;;;108634;1271;42120;-61
2022/11/12 07:57:00;;;;;;;;;;;;;9.70;99049.60;;;;108672;1262;41555;-62
2022/11/12 07:59:48;;;;;;;;;;;;;9.80;99053.00;;;;108674;1265;41597;-62
2022/11/12 08:02:36;;;;;;;;;;;;;9.78;99059.20;;;;108641;1271;41145;-62
2022/11/12 08:05:23;;;;;;;;;;;;;9.80;99058.00;;;;108728;1271;41150;-61
2022/11/12 08:08:10;;;;;;;;;;;;;9.80;99050.40;;;;108968;1269;41491;-62
2022/11/12 08:10:58;;;;;;;;;;;;;9.80;99052.20;;;;108965;1271;41229;-61
2022/11/12 08:13:45;;;;;;;;;;;;;9.80;99052.40;;;;108878;1269;42406;-62
2022/11/12 08:16:32;;;;;;;;;;;;;9.90;99049.80;;;;108932;1265;41236;-62
2022/11/12 08:19:20;;;;;;;;;;;;;9.90;99059.00;;;;108904;1268;41146;-60
2022/11/12 08:22:08;;;;;;;;;;;;;10.00;99062.00;;;;108955;1262;41570;-61
2022/11/12 08:24:55;;;;;;;;;;;;;10.10;99069.60;;;;108830;1271;41693;-61
2022/11/12 08:27:42;;;;;;;;;;;;;10.10;99070.80;;;;108869;1269;42085;-62
2022/11/12 08:30:29;;;;;;;;;;;;;10.10;99067.00;;;;109016;1256;42140;-61
2022/11/12 08:33:16;;;;;;;;;;;;;10.12;99072.00;;;;109036;1267;42298;-61
2022/11/12 08:36:05;;;;;;;;;;;;;10.10;99074.20;;;;109087;1263;40937;-61
2022/11/12 08:38:53;;;;;;;;;;;;;10.10;99076.60;;;;109111;1254;41174;-61
2022/11/12 08:41:40;;;;;;;;;;;;;10.10;99083.20;;;;109003;1266;41921;-62
2022/11/12 08:44:27;;;;;;;;;;;;;10.02;99082.40;;;;108936;1268;42099;-62
2022/11/12 08:47:14;;;;;;;;;;;;;10.10;99074.20;;;;109036;1260;41145;-61
2022/11/12 08:50:02;;;;;;;;;;;;;10.10;99083.60;;;;108968;1268;41195;-61
2022/11/12 08:52:49;;;;;;;;;;;;;10.20;99083.80;;;;109067;1265;42233;-62
2022/11/12 08:55:36;;;;;;;;;;;;;10.20;99089.20;;;;108999;1268;42287;-60
2022/11/12 08:58:24;;;;;;;;;;;;;10.20;99085.20;;;;109017;1263;41235;-61
2022/11/12 09:01:12;;;;;;;;;;;;;10.20;99087.00;;;;109027;1268;41784;-62
2022/11/12 09:03:59;;;;;;;;;;;;;10.30;99082.00;;;;109051;1260;41224;-62
2022/11/12 09:06:46;;;;;;;;;;;;;10.40;99080.40;;;;109025;1268;41143;-62
2022/11/12 09:09:39;;;;;;;;;;;;;10.40;99078.80;;;;109026;1268;41449;-62
2022/11/12 09:12:26;;;;;;;;;;;;;10.48;99077.40;;;;109023;1268;41637;-61
2022/11/12 09:15:13;;;;;;;;;;;;;10.50;99076.60;;;;109018;1266;41236;-62
2022/11/12 09:18:20;;;;;;;;;;;;;10.40;99085.20;;;;109014;1265;41975;-61
2022/11/12 09:21:10;;;;;;;;;;;;;10.42;99078.00;;;;109084;1268;41158;-61
2022/11/12 09:23:57;;;;;;;;;;;;;10.50;99082.00;;;;109016;1266;41138;-61
2022/11/12 09:26:45;;;;;;;;;;;;;10.40;99090.20;;;;108979;1268;41246;-61
2022/11/12 09:29:32;;;;;;;;;;;;;10.38;99094.00;;;;108975;1266;41680;-61
2022/11/12 09:32:19;;;;;;;;;;;;;10.30;99089.60;;;;109035;1265;41865;-61
2022/11/12 09:35:06;;;;;;;;;;;;;10.30;99089.60;;;;108991;1268;41247;-61
2022/11/12 09:37:53;;;;;;;;;;;;;10.30;99094.40;;;;109023;1262;41275;-62
2022/11/12 09:40:44;;;;;;;;;;;;;10.30;99093.40;;;;109029;1263;41250;-62
2022/11/12 09:43:32;;;;;;;;;;;;;10.30;99093.00;;;;108982;1268;41250;-62
2022/11/12 09:46:20;;;;;;;;;;;;;10.30;99086.00;;;;109009;1268;41234;-62
2022/11/12 09:49:23;;;;;;;;;;;;;10.34;99085.80;;;;108991;1267;41149;-62
2022/11/12 09:52:22;;;;;;;;;;;;;10.40;99077.00;;;;109018;1267;41155;-62
2022/11/12 09:55:16;;;;;;;;;;;;;10.50;99078.20;;;;108993;1268;41233;-62
2022/11/12 09:58:12;;;;;;;;;;;;;10.62;99070.80;;;;109018;1268;42214;-62
2022/11/12 10:01:00;;;;;;;;;;;;;10.80;99068.40;;;;108970;1268;42521;-61
2022/11/12 10:03:47;;;;;;;;;;;;;10.90;99066.60;;;;109030;1266;41225;-62
2022/11/12 10:06:38;;;;;;;;;;;;;11.00;99066.40;;;;109015;1266;41752;-62
2022/11/12 10:09:32;;;;;;;;;;;;;11.10;99061.60;;;;109007;1268;41189;-62
2022/11/12 10:12:32;;;;;;;;;;;;;11.10;99065.40;;;;108995;1266;41200;-62
2022/11/12 10:18:37;;;;;;;;;;;;;11.02;99067.80;;;;109526;1268;41938;-65
2022/11/12 10:21:24;;;;;;;;;;;;;11.00;99070.60;;;;109991;1268;41237;-66
2022/11/12 10:24:11;;;;;;;;;;;;;11.00;99067.40;;;;109750;1267;41536;-66
2022/11/12 10:26:59;;;;;;;;;;;;;11.00;99071.40;;;;109055;1268;41042;-66
2022/11/12 10:30:04;;;;;;;;;;;;;10.92;99068.20;;;;108935;1267;41680;-66
2022/11/12 10:32:51;;;;;;;;;;;;;10.90;99068.40;;;;109073;1268;42224;-66
2022/11/12 10:35:38;;;;;;;;;;;;;10.74;99066.80;;;;109054;1268;41156;-66
2022/11/12 10:38:26;;;;;;;;;;;;;10.70;99063.40;;;;109037;1268;41141;-66
2022/11/12 10:41:21;;;;;;;;;;;;;10.60;99064.80;;;;109017;1268;41145;-66
2022/11/12 10:44:13;;;;;;;;;;;;;10.58;99066.00;;;;108987;1268;41153;-66
2022/11/12 10:47:19;;;;;;;;;;;;;10.60;99066.00;;;;109019;1268;41181;-66
2022/11/12 10:50:24;;;;;;;;;;;;;10.70;99069.60;;;;109026;1263;41241;-66
2022/11/12 10:53:11;;;;;;;;;;;;;10.80;99071.40;;;;109001;1268;41244;-65
2022/11/12 10:56:03;;;;;;;;;;;;;10.80;99069.60;;;;109009;1268;41163;-65
2022/11/12 10:59:09;;;;;;;;;;;;;10.88;99062.80;;;;108981;1266;41325;-66
2022/11/12 11:01:57;;;;;;;;;;;;;10.98;99058.20;;;;109031;1266;42005;-66
2022/11/12 11:04:44;;;;;;;;;;;;;11.00;99056.00;;;;108998;1268;41699;-66
2022/11/12 11:07:31;;;;;;;;;;;;;11.30;99054.60;;;;108973;1265;41241;-65
2022/11/12 11:10:23;;;;;;;;;;;;;11.40;99052.20;;;;109029;1268;41604;-65
2022/11/12 11:13:20;;;;;;;;;;;;;11.50;99057.60;;;;109040;1268;41498;-65
2022/11/12 11:16:09;;;;;;;;;;;;;11.60;99059.40;;;;109015;1266;41273;-65
2022/11/12 11:18:58;;;;;;;;;;;;;11.82;99055.40;;;;108950;1268;41195;-65
2022/11/12 11:21:46;;;;;;;;;;;;;12.20;99051.20;;;;109108;1268;41127;-65
2022/11/12 11:24:50;;;;;;;;;;;;;12.34;99046.40;;;;108975;1268;41537;-66
2022/11/12 11:27:43;;;;;;;;;;;;;12.36;99051.40;;;;108804;1270;41153;-64
2022/11/12 11:30:30;;;;;;;;;;;;;12.10;99046.20;;;;108911;1265;41237;-63
2022/11/12 11:33:25;;;;;;;;;;;;;11.90;99049.20;;;;108819;1271;41588;-63
2022/11/12 11:36:24;;;;;;;;;;;;;11.78;99052.60;;;;108920;1268;42463;-64
2022/11/12 11:39:44;;;;;;;;;;;;;11.76;99054.80;;;;109021;1268;41461;-62
2022/11/12 11:42:42;;;;;;;;;;;;;11.80;99055.20;;;;108718;1271;41255;-63
2022/11/12 11:45:47;;;;;;;;;;;;;11.90;99050.20;;;;108983;1264;41348;-63
2022/11/12 11:48:48;;;;;;;;;;;;;11.90;99049.20;;;;109035;1268;41507;-62
2022/11/12 11:51:48;;;;;;;;;;;;;11.90;99046.80;;;;109034;1268;41635;-63
2022/11/12 11:54:44;;;;;;;;;;;;;12.00;99036.80;;;;109033;1268;41215;-62
2022/11/12 11:57:36;;;;;;;;;;;;;12.20;99033.00;;;;109032;1268;41208;-63
2022/11/12 12:00:24;;;;;;;;;;;;;12.74;99028.00;;;;109052;1265;41889;-62
2022/11/12 12:03:18;;;;;;;;;;;;;14.02;99021.00;;;;109016;1270;41315;-63
2022/11/12 12:06:08;;;;;;;;;;;;;15.74;99017.80;;;;109003;1266;41892;-64
2022/11/12 12:08:57;;;;;;;;;;;;;17.48;99011.20;;;;108973;1268;42227;-64
2022/11/12 12:11:45;;;;;;;;;;;;;18.84;99001.80;;;;108956;1268;41164;-63
2022/11/12 12:14:32;;;;;;;;;;;;;20.16;99004.00;;;;109004;1266;41423;-64
2022/11/12 12:17:22;;;;;;;;;;;;;21.16;98991.80;;;;109035;1268;41233;-64
2022/11/12 12:20:34;;;;;;;;;;;;;22.14;98990.20;;;;108905;1268;41981;-64
2022/11/12 12:23:26;;;;;;;;;;;;;23.10;98989.40;;;;108954;1268;41724;-64
2022/11/12 12:26:14;;;;;;;;;;;;;23.72;98985.00;;;;108867;1268;41178;-64
2022/11/12 12:29:14;;;;;;;;;;;;;24.20;98979.00;;;;108945;1268;41237;-63
2022/11/12 12:32:06;;;;;;;;;;;;;24.64;98975.00;;;;108994;1267;41238;-65
2022/11/12 12:35:02;;;;;;;;;;;;;25.14;98974.00;;;;108967;1264;41233;-64
2022/11/12 12:37:56;;;;;;;;;;;;;25.86;98970.00;;;;108942;1270;41246;-64
2022/11/12 12:40:43;;;;;;;;;;;;;26.68;98967.60;;;;109033;1268;41222;-64
2022/11/12 12:43:45;;;;;;;;;;;;;27.06;98958.60;;;;108968;1267;41225;-64
2022/11/12 12:46:35;;;;;;;;;;;;;27.40;98956.60;;;;108989;1266;41481;-65
2022/11/12 12:49:33;;;;;;;;;;;;;27.80;98953.40;;;;108925;1268;41158;-64
2022/11/12 12:52:20;;;;;;;;;;;;;28.38;98959.20;;;;109057;1268;41475;-64
2022/11/12 12:55:28;;;;;;;;;;;;;28.60;98956.40;;;;108842;1266;41599;-65
2022/11/12 12:58:27;;;;;;;;;;;;;28.80;98957.00;;;;109005;1266;42284;-64
2022/11/12 13:01:21;;;;;;;;;;;;;29.00;98959.80;;;;109012;1268;41149;-63
2022/11/12 13:04:10;;;;;;;;;;;;;28.90;98958.00;;;;109013;1268;41166;-64
2022/11/12 13:06:57;;;;;;;;;;;;;28.80;98960.40;;;;109027;1268;41199;-64
2022/11/12 13:09:45;;;;;;;;;;;;;28.40;98967.20;;;;109039;1267;41151;-64
2022/11/12 13:13:11;;;;;;;;;;;;;27.82;98968.80;;;;109037;1268;41163;-64
2022/11/12 13:15:58;;;;;;;;;;;;;27.10;98976.40;;;;108315;1277;42063;-65
2022/11/12 13:18:51;;;;;;;;;;;;;26.70;98979.00;;;;108451;1276;41270;-64
2022/11/12 13:21:38;;;;;;;;;;;;;26.38;98978.60;;;;108917;1267;41244;-64
2022/11/12 13:24:45;;;;;;;;;;;;;26.20;98978.00;;;;109013;1268;41355;-65
2022/11/12 13:27:44;;;;;;;;;;;;;26.22;98980.20;;;;108786;1268;41189;-64
2022/11/12 13:30:32;;;;;;;;;;;;;26.40;98982.60;;;;108949;1268;41207;-64
2022/11/12 13:33:28;;;;;;;;;;;;;26.30;98983.60;;;;109036;1268;41234;-64
2022/11/12 13:36:27;;;;;;;;;;;;;26.30;98985.80;;;;108936;1268;41136;-64
2022/11/12 13:39:14;;;;;;;;;;;;;26.20;98985.20;;;;108941;1268;41606;-62
2022/11/12 13:45:09;;;;;;;;;;;;;26.00;98976.20;;;;109034;1268;41231;-65
2022/11/12 13:47:56;;;;;;;;;;;;;25.90;98976.80;;;;108970;1268;41278;-64
2022/11/12 13:50:47;;;;;;;;;;;;;25.72;98980.80;;;;108978;1268;41163;-64
2022/11/12 13:53:34;;;;;;;;;;;;;25.50;98977.60;;;;108916;1267;41145;-64
2022/11/12 13:56:29;;;;;;;;;;;;;25.30;98977.40;;;;108883;1271;42419;-64
2022/11/12 13:59:17;;;;;;;;;;;;;25.00;98977.40;;;;108795;1270;41234;-65
2022/11/12 14:02:04;;;;;;;;;;;;;24.80;98976.20;;;;108837;1271;41233;-64
2022/11/12 14:04:51;;;;;;;;;;;;;24.80;98975.60;;;;108974;1270;41636;-64
2022/11/12 14:07:41;;;;;;;;;;;;;24.70;98972.80;;;;108824;1271;41218;-64
2022/11/12 14:10:31;;;;;;;;;;;;;24.52;98970.20;;;;108864;1271;41144;-63
2022/11/12 14:13:24;;;;;;;;;;;;;24.30;98969.20;;;;108925;1268;41182;-63
2022/11/12 14:16:11;;;;;;;;;;;;;23.94;98969.40;;;;108962;1260;41325;-63
2022/11/12 14:19:04;;;;;;;;;;;;;23.70;98968.60;;;;108950;1266;42703;-63
2022/11/12 14:22:08;;;;;;;;;;;;;23.44;98969.40;;;;108957;1271;41800;-64
2022/11/12 14:24:59;;;;;;;;;;;;;23.10;98971.80;;;;109041;1270;41233;-64
2022/11/12 14:27:47;;;;;;;;;;;;;22.78;98972.20;;;;109001;1271;41878;-64
2022/11/12 14:30:34;;;;;;;;;;;;;22.40;98967.20;;;;109014;1271;41170;-64
2022/11/12 14:33:22;;;;;;;;;;;;;21.96;98969.20;;;;109007;1271;41630;-64
2022/11/12 14:36:10;;;;;;;;;;;;;21.50;98966.20;;;;109009;1271;41237;-63
2022/11/12 14:38:57;;;;;;;;;;;;;21.00;98966.00;;;;108972;1271;41986;-63
2022/11/12 14:41:49;;;;;;;;;;;;;20.50;98974.00;;;;108944;1271;41236;-64
2022/11/12 14:44:36;;;;;;;;;;;;;19.98;98970.80;;;;109020;1271;42973;-64
2022/11/12 14:47:23;;;;;;;;;;;;;19.44;98969.40;;;;109026;1271;41243;-64
2022/11/12 14:50:37;;;;;;;;;;;;;18.90;98974.00;;;;109002;1269;41899;-64
2022/11/12 14:53:29;;;;;;;;;;;;;18.36;98975.40;;;;109055;1269;41598;-64
2022/11/12 14:56:27;;;;;;;;;;;;;17.90;98975.40;;;;109029;1270;42100;-63
2022/11/12 14:59:21;;;;;;;;;;;;;17.40;98977.00;;;;108980;1271;41168;-62
2022/11/12 15:02:13;;;;;;;;;;;;;16.96;98982.20;;;;108906;1270;41268;-63
2022/11/12 15:05:22;;;;;;;;;;;;;16.48;98983.60;;;;109011;1270;42642;-63
2022/11/12 15:08:10;;;;;;;;;;;;;16.14;98989.00;;;;109010;1270;41244;-63
2022/11/12 15:11:13;;;;;;;;;;;;;15.90;98991.00;;;;108964;1271;42617;-63
2022/11/12 15:14:25;;;;;;;;;;;;;15.50;98991.20;;;;108988;1264;41150;-63
2022/11/12 15:17:27;;;;;;;;;;;;;15.26;98993.00;;;;109022;1271;41511;-63
2022/11/12 15:20:15;;;;;;;;;;;;;15.00;98992.80;;;;108951;1268;41137;-62
2022/11/12 15:23:02;;;;;;;;;;;;;14.60;98993.20;;;;108955;1271;41883;-63
2022/11/12 15:25:56;;;;;;;;;;;;;14.40;98998.20;;;;108889;1271;43501;-63
2022/11/12 15:29:00;;;;;;;;;;;;;14.24;98997.20;;;;109017;1271;41321;-62
2022/11/12 15:31:48;;;;;;;;;;;;;14.10;98996.00;;;;108960;1271;41148;-62
2022/11/12 15:34:40;;;;;;;;;;;;;14.00;98995.20;;;;109034;1271;41937;-62
2022/11/12 15:37:35;;;;;;;;;;;;;13.90;98996.00;;;;109018;1271;42964;-61
2022/11/12 15:40:22;;;;;;;;;;;;;13.80;98998.40;;;;108944;1269;41185;-62
2022/11/12 15:43:16;;;;;;;;;;;;;13.60;99005.20;;;;109062;1268;41224;-62
2022/11/12 15:46:03;;;;;;;;;;;;;13.50;99008.80;;;;109017;1268;41288;-61
2022/11/12 15:48:50;;;;;;;;;;;;;13.40;99011.40;;;;108971;1268;41768;-62
2022/11/12 15:51:41;;;;;;;;;;;;;13.20;99017.60;;;;109047;1268;41835;-62
2022/11/12 15:54:29;;;;;;;;;;;;;13.02;99023.00;;;;109082;1269;41231;-62
2022/11/12 15:57:17;;;;;;;;;;;;;12.80;99022.00;;;;109108;1268;41172;-61
2022/11/12 16:00:06;;;;;;;;;;;;;12.70;99032.20;;;;109030;1271;41239;-62
2022/11/12 16:02:55;;;;;;;;;;;;;12.70;99031.60;;;;109028;1269;41513;-62
2022/11/12 16:05:43;;;;;;;;;;;;;12.60;99035.20;;;;108989;1268;41160;-61
2022/11/12 16:08:30;;;;;;;;;;;;;12.60;99033.00;;;;109024;1268;41143;-61
2022/11/12 16:11:35;;;;;;;;;;;;;12.50;99034.40;;;;109049;1268;41148;-64